createdAt,value
2019-01-05T00:02:31.764Z,16.02
2019-01-05T00:05:28.404Z,16.60
2019-01-05T00:08:33.980Z,15.35
2019-01-05T00:11:24.478Z,13.22
2019-01-05T00:14:11.721Z,12.82
2019-01-05T00:17:07.995Z,13.85
2019-01-05T00:19:57.672Z,14.80
2019-01-05T00:22:47.789Z,14.07
2019-01-05T00:25:41.431Z,14.10
2019-01-05T00:28:46.442Z,14.83
2019-01-05T00:31:34.374Z,14.38
2019-01-05T00:34:25.566Z,13.43
2019-01-05T00:37:15.547Z,11.22
2019-01-05T00:40:09.379Z,13.95
2019-01-05T00:43:00.267Z,11.03
2019-01-05T00:45:56.999Z,12.58
2019-01-05T00:48:47.570Z,10.75
2019-01-05T00:51:40.685Z,9.18
2019-01-05T00:54:49.335Z,9.18
2019-01-05T00:57:49.910Z,8.35
2019-01-05T01:00:46.127Z,8.55
2019-01-05T01:03:33.137Z,7.37
2019-01-05T01:06:36.316Z,9.05
2019-01-05T01:09:24.145Z,8.48
2019-01-05T01:12:09.933Z,8.00
2019-01-05T01:14:56.110Z,9.05
2019-01-05T01:17:43.568Z,9.40
2019-01-05T01:20:32.638Z,8.85
2019-01-05T01:23:28.444Z,7.67
2019-01-05T01:26:14.410Z,7.58
2019-01-05T01:29:08.416Z,7.95
2019-01-05T01:31:57.903Z,7.37
2019-01-05T01:34:45.746Z,7.78
2019-01-05T01:37:49.746Z,7.85
2019-01-05T01:40:35.968Z,8.30
2019-01-05T01:43:26.037Z,8.08
2019-01-05T01:46:25.796Z,9.40
2019-01-05T01:49:15.727Z,9.50
2019-01-05T01:52:06.227Z,11.18
2019-01-05T01:55:05.923Z,12.93
2019-01-05T01:57:54.771Z,13.80
2019-01-05T02:00:42.378Z,12.47
2019-01-05T02:03:33.057Z,13.55
2019-01-05T02:06:27.970Z,12.78
2019-01-05T02:09:21.497Z,15.63
2019-01-05T02:12:05.699Z,12.28
2019-01-05T02:14:57.945Z,11.60
2019-01-05T02:18:01.172Z,11.68
2019-01-05T02:21:29.261Z,11.22
2019-01-05T02:24:36.599Z,12.28
2019-01-05T02:28:03.384Z,11.12
2019-01-05T02:31:50.616Z,12.40
2019-01-05T02:35:04.314Z,10.65
2019-01-05T02:38:37.697Z,12.25
2019-01-05T02:41:59.076Z,11.60
2019-01-05T02:45:34.024Z,12.35
2019-01-05T02:49:01.475Z,12.58
2019-01-05T02:52:46.424Z,12.98
2019-01-05T02:56:12.960Z,12.80
2019-01-05T02:59:50.664Z,12.63
2019-01-05T03:03:19.382Z,12.28
2019-01-05T03:06:43.099Z,14.20
2019-01-05T03:10:17.157Z,14.40
2019-01-05T03:13:38.784Z,13.10
2019-01-05T03:17:08.071Z,13.30
2019-01-05T03:20:51.763Z,12.73
2019-01-05T03:24:13.150Z,13.05
2019-01-05T03:27:24.925Z,11.88
2019-01-05T03:30:40.245Z,14.13
2019-01-05T03:33:59.404Z,11.70
2019-01-05T03:37:14.314Z,11.60
2019-01-05T03:40:34.521Z,12.03
2019-01-05T03:44:14.311Z,12.00
2019-01-05T03:47:35.697Z,11.20
2019-01-05T03:50:56.920Z,10.40
2019-01-05T03:54:16.512Z,11.12
2019-01-05T03:57:48.073Z,11.15
2019-01-05T04:01:19.077Z,10.18
2019-01-05T04:04:52.806Z,12.50
2019-01-05T04:08:09.357Z,11.70
2019-01-05T04:11:47.267Z,11.40
2019-01-05T04:15:43.970Z,11.83
2019-01-05T04:19:24.101Z,11.83
2019-01-05T04:22:56.781Z,11.95
2019-01-05T04:26:24.046Z,12.75
2019-01-05T04:30:00.267Z,13.28
2019-01-05T04:33:27.800Z,12.80
2019-01-05T04:36:51.775Z,11.35
2019-01-05T04:40:26.867Z,11.35
2019-01-05T04:44:05.223Z,13.50
2019-01-05T04:47:21.522Z,12.13
2019-01-05T04:51:00.830Z,13.08
2019-01-05T04:54:32.904Z,10.60
2019-01-05T04:58:28.031Z,13.38
2019-01-05T05:01:38.521Z,12.05
2019-01-05T05:05:06.134Z,12.00
2019-01-05T05:08:45.418Z,9.48
2019-01-05T05:12:22.236Z,10.32
2019-01-05T05:16:00.710Z,8.40
2019-01-05T05:19:52.924Z,8.00
2019-01-05T05:23:11.495Z,11.20
2019-01-05T05:26:37.947Z,12.20
2019-01-05T05:30:23.440Z,12.75
2019-01-05T05:33:55.935Z,12.85
2019-01-05T05:37:45.795Z,13.28
2019-01-05T05:41:37.961Z,13.20
2019-01-05T05:44:57.059Z,10.40
2019-01-05T05:48:31.385Z,11.43
2019-01-05T05:51:47.405Z,13.03
2019-01-05T05:55:15.604Z,13.18
2019-01-05T05:58:57.191Z,12.53
2019-01-05T06:02:27.837Z,12.20
2019-01-05T06:05:53.036Z,12.23
2019-01-05T06:09:42.851Z,13.65
2019-01-05T06:13:38.656Z,13.18
2019-01-05T06:17:19.295Z,13.40
2019-01-05T06:20:50.154Z,13.22
2019-01-05T06:24:29.612Z,16.00
2019-01-05T06:28:17.050Z,15.18
2019-01-05T06:31:36.793Z,14.40
2019-01-05T06:35:08.024Z,14.73
2019-01-05T06:38:46.924Z,13.83
2019-01-05T06:42:22.564Z,13.35
2019-01-05T06:45:55.470Z,13.40
2019-01-05T06:49:18.515Z,13.20
2019-01-05T06:52:47.946Z,14.13
2019-01-05T06:56:15.701Z,11.95
2019-01-05T06:59:45.371Z,13.88
2019-01-05T07:03:31.936Z,15.63
2019-01-05T07:07:11.447Z,14.20
2019-01-05T07:10:21.604Z,14.25
2019-01-05T07:13:41.737Z,13.88
2019-01-05T07:17:25.333Z,12.82
2019-01-05T07:21:05.124Z,12.40
2019-01-05T07:24:24.596Z,14.07
2019-01-05T07:27:54.310Z,12.68
2019-01-05T07:31:19.180Z,12.98
2019-01-05T07:34:41.690Z,12.10
2019-01-05T07:38:38.364Z,13.60
2019-01-05T07:42:08.025Z,15.43
2019-01-05T07:45:36.761Z,14.47
2019-01-05T07:49:07.531Z,14.13
2019-01-05T07:52:31.004Z,14.45
2019-01-05T07:55:54.098Z,18.67
2019-01-05T07:59:05.056Z,16.75
2019-01-05T08:02:26.591Z,13.28
2019-01-05T08:05:50.088Z,14.87
2019-01-05T08:09:28.687Z,16.12
2019-01-05T08:12:50.253Z,13.80
2019-01-05T08:16:28.362Z,15.03
2019-01-05T08:20:02.503Z,14.20
2019-01-05T08:23:35.983Z,16.23
2019-01-05T08:27:10.217Z,15.15
2019-01-05T08:30:42.327Z,15.65
2019-01-05T08:34:10.943Z,14.75
2019-01-05T08:37:59.245Z,14.23
2019-01-05T08:41:31.265Z,15.48
2019-01-05T08:45:30.700Z,13.98
2019-01-05T08:48:49.769Z,13.53
2019-01-05T08:52:10.051Z,11.30
2019-01-05T08:55:36.574Z,13.53
2019-01-05T08:59:28.040Z,12.40
2019-01-05T09:03:27.249Z,16.45
2019-01-05T09:07:08.561Z,14.73
2019-01-05T09:10:39.431Z,12.50
2019-01-05T09:14:21.611Z,13.00
2019-01-05T09:18:23.483Z,17.30
2019-01-05T09:21:57.535Z,14.15
2019-01-05T09:25:24.882Z,13.18
2019-01-05T09:28:54.081Z,12.88
2019-01-05T09:32:32.883Z,11.38
2019-01-05T09:36:06.067Z,11.60
2019-01-05T09:40:11.271Z,9.90
2019-01-05T09:43:36.511Z,11.15
2019-01-05T09:47:01.973Z,11.40
2019-01-05T09:50:38.018Z,12.53
2019-01-05T09:54:46.539Z,11.18
2019-01-05T09:58:15.882Z,10.70
2019-01-05T10:01:43.601Z,12.75
2019-01-05T10:05:23.480Z,12.05
2019-01-05T10:08:59.592Z,11.75
2019-01-05T10:12:14.248Z,13.72
2019-01-05T10:15:56.826Z,11.22
2019-01-05T10:19:36.519Z,13.55
2019-01-05T10:23:14.484Z,15.30
2019-01-05T10:27:02.619Z,16.23
2019-01-05T10:30:35.353Z,12.95
2019-01-05T10:33:34.625Z,12.98
2019-01-05T10:37:13.864Z,13.30
2019-01-05T10:40:25.279Z,11.00
2019-01-05T10:44:27.535Z,12.75
2019-01-05T10:48:11.856Z,11.88
2019-01-05T10:51:27.054Z,12.25
2019-01-05T10:54:59.302Z,16.50
2019-01-05T10:58:51.116Z,15.13
2019-01-05T11:02:27.336Z,12.60
2019-01-05T11:06:16.222Z,13.38
2019-01-05T11:09:55.282Z,14.98
2019-01-05T11:13:14.861Z,13.00
2019-01-05T11:16:38.158Z,12.20
2019-01-05T11:20:15.323Z,13.32
2019-01-05T11:23:42.565Z,12.75
2019-01-05T11:27:26.529Z,13.38
2019-01-05T11:31:08.970Z,11.05
2019-01-05T11:34:37.064Z,11.35
2019-01-05T11:38:16.419Z,12.23
2019-01-05T11:41:56.054Z,11.97
2019-01-05T11:45:37.689Z,11.80
2019-01-05T11:49:05.706Z,12.98
2019-01-05T11:52:38.572Z,13.03
2019-01-05T11:55:57.457Z,12.58
2019-01-05T11:59:34.986Z,14.63
2019-01-05T12:03:18.678Z,10.45
2019-01-05T12:06:51.062Z,14.15
2019-01-05T12:10:15.326Z,11.95
2019-01-05T12:13:49.505Z,11.80
2019-01-05T12:17:26.905Z,12.07
2019-01-05T12:20:56.212Z,11.75
2019-01-05T12:24:42.999Z,12.13
2019-01-05T12:28:12.759Z,10.15
2019-01-05T12:31:53.634Z,10.50
2019-01-05T12:35:23.225Z,10.98
2019-01-05T12:38:55.839Z,11.10
2019-01-05T12:42:46.047Z,10.23
2019-01-05T12:46:03.431Z,10.15
2019-01-05T12:49:26.379Z,10.95
2019-01-05T12:52:38.150Z,11.95
2019-01-05T12:56:00.228Z,10.25
2019-01-05T12:59:45.612Z,9.15
2019-01-05T13:03:18.231Z,10.40
2019-01-05T13:06:48.667Z,10.58
2019-01-05T13:10:37.460Z,10.75
2019-01-05T13:14:20.598Z,9.05
2019-01-05T13:17:47.068Z,11.88
2019-01-05T13:21:11.448Z,12.75
2019-01-05T13:24:29.771Z,10.72
2019-01-05T13:27:43.362Z,10.18
2019-01-05T13:31:11.290Z,10.63
2019-01-05T13:34:37.728Z,11.08
2019-01-05T13:38:05.597Z,10.53
2019-01-05T13:41:33.077Z,10.55
2019-01-05T13:45:02.172Z,10.70
2019-01-05T13:48:22.538Z,12.73
2019-01-05T13:52:11.947Z,13.08
2019-01-05T13:55:09.239Z,11.38
2019-01-05T13:57:56.030Z,12.00
2019-01-05T14:00:44.717Z,12.80
2019-01-05T14:03:30.231Z,11.90
2019-01-05T14:06:26.806Z,12.85
2019-01-05T14:09:12.873Z,12.63
2019-01-05T14:12:00.242Z,12.60
2019-01-05T14:14:50.696Z,14.33
2019-01-05T14:17:37.404Z,13.28
2019-01-05T14:20:32.923Z,12.00
2019-01-05T14:23:18.613Z,12.40
2019-01-05T14:26:18.619Z,11.83
2019-01-05T14:29:15.160Z,12.55
2019-01-05T14:32:06.461Z,13.75
2019-01-05T14:35:05.172Z,12.78
2019-01-05T14:38:08.194Z,12.80
2019-01-05T14:40:58.453Z,12.88
2019-01-05T14:43:45.905Z,13.08
2019-01-05T14:46:39.456Z,11.10
2019-01-05T14:49:25.133Z,16.37
2019-01-05T14:52:12.649Z,15.10
2019-01-05T14:54:59.835Z,16.20
2019-01-05T14:57:59.317Z,15.75
2019-01-05T15:00:48.892Z,15.85
2019-01-05T15:03:34.885Z,16.55
2019-01-05T15:06:21.003Z,14.68
2019-01-05T15:09:25.969Z,17.30
2019-01-05T15:12:13.546Z,17.30
2019-01-05T15:14:59.442Z,15.45
2019-01-05T15:17:49.536Z,17.35
2019-01-05T15:20:37.959Z,16.23
2019-01-05T15:23:28.287Z,15.85
2019-01-05T15:26:18.457Z,15.45
2019-01-05T15:29:04.332Z,15.88
2019-01-05T15:31:46.744Z,16.00
2019-01-05T15:34:36.348Z,15.50
2019-01-05T15:37:16.666Z,16.23
2019-01-05T15:40:12.044Z,15.10
2019-01-05T15:43:05.351Z,15.68
2019-01-05T15:46:07.753Z,14.38
2019-01-05T15:48:53.405Z,14.90
2019-01-05T15:51:58.878Z,16.05
2019-01-05T15:55:01.308Z,13.70
2019-01-05T15:57:46.773Z,14.78
2019-01-05T16:00:45.841Z,12.65
2019-01-05T16:03:30.124Z,16.82
2019-01-05T16:06:15.783Z,12.05
2019-01-05T16:09:03.453Z,13.95
2019-01-05T16:11:52.144Z,12.63
2019-01-05T16:14:51.180Z,13.13
2019-01-05T16:17:44.069Z,14.90
2019-01-05T16:20:29.829Z,14.78
2019-01-05T16:23:19.328Z,15.30
2019-01-05T16:26:15.854Z,14.65
2019-01-05T16:29:02.934Z,14.95
2019-01-05T16:31:56.528Z,13.35
2019-01-05T16:34:43.715Z,12.30
2019-01-05T16:37:30.838Z,13.03
2019-01-05T16:40:23.942Z,12.90
2019-01-05T16:43:06.932Z,15.08
2019-01-05T16:45:57.108Z,11.33
2019-01-05T16:48:59.217Z,11.40
2019-01-05T16:51:42.524Z,12.68
2019-01-05T16:54:28.265Z,13.58
2019-01-05T16:57:24.581Z,13.88
2019-01-05T17:00:10.488Z,12.75
2019-01-05T17:02:57.416Z,12.28
2019-01-05T17:05:50.682Z,10.45
2019-01-05T17:08:40.747Z,13.08
2019-01-05T17:11:34.032Z,12.45
2019-01-05T17:14:39.399Z,12.20
2019-01-05T17:17:20.526Z,14.55
2019-01-05T17:20:06.710Z,14.23
2019-01-05T17:23:06.185Z,12.73
2019-01-05T17:26:02.619Z,14.18
2019-01-05T17:28:48.312Z,16.07
2019-01-05T17:31:45.008Z,13.45
2019-01-05T17:34:30.826Z,13.98
2019-01-05T17:37:16.931Z,13.15
2019-01-05T17:40:16.312Z,13.70
2019-01-05T17:43:09.198Z,11.97
2019-01-05T17:45:55.411Z,13.10
2019-01-05T17:48:41.356Z,12.40
2019-01-05T17:51:27.424Z,11.28
2019-01-05T17:54:24.039Z,12.40
2019-01-05T17:57:13.983Z,14.33
2019-01-05T18:00:04.101Z,15.05
2019-01-05T18:03:06.605Z,15.53
2019-01-05T18:06:21.025Z,17.10
2019-01-05T18:09:26.769Z,17.85
2019-01-05T18:12:25.294Z,17.02
2019-01-05T18:15:15.377Z,16.60
2019-01-05T18:18:22.477Z,16.80
2019-01-05T18:21:12.971Z,16.45
2019-01-05T18:24:03.443Z,14.63
2019-01-05T18:27:11.591Z,13.98
2019-01-05T18:30:02.128Z,14.43
2019-01-05T18:32:55.949Z,14.83
2019-01-05T18:35:47.983Z,15.08
2019-01-05T18:38:45.669Z,16.93
2019-01-05T18:41:31.643Z,15.53
2019-01-05T18:44:31.107Z,15.95
2019-01-05T18:47:19.440Z,17.60
2019-01-05T18:49:59.325Z,17.40
2019-01-05T18:52:45.176Z,17.70
2019-01-05T18:55:35.459Z,15.58
2019-01-05T18:58:31.823Z,16.65
2019-01-05T19:01:17.443Z,16.32
2019-01-05T19:04:22.807Z,16.87
2019-01-05T19:07:10.032Z,15.78
2019-01-05T19:09:57.152Z,16.12
2019-01-05T19:12:43.331Z,19.45
2019-01-05T19:15:30.640Z,19.52
2019-01-05T19:18:11.343Z,19.73
2019-01-05T19:21:03.478Z,23.05
2019-01-05T19:24:00.490Z,21.82
2019-01-05T19:27:04.418Z,20.80
2019-01-05T19:29:59.176Z,17.80
2019-01-05T19:32:45.276Z,17.75
2019-01-05T19:35:33.317Z,16.17
2019-01-05T19:38:18.763Z,13.88
2019-01-05T19:41:06.268Z,14.63
2019-01-05T19:44:14.108Z,17.45
2019-01-05T19:47:00.716Z,16.20
2019-01-05T19:49:49.891Z,15.50
2019-01-05T19:52:35.804Z,18.40
2019-01-05T19:55:21.218Z,15.90
2019-01-05T19:58:06.711Z,18.70
2019-01-05T20:00:57.586Z,17.02
2019-01-05T20:03:51.218Z,16.80
2019-01-05T20:06:37.266Z,19.17
2019-01-05T20:09:24.138Z,16.87
2019-01-05T20:12:10.448Z,17.52
2019-01-05T20:15:00.867Z,18.48
2019-01-05T20:17:54.222Z,16.00
2019-01-05T20:20:42.198Z,19.55
2019-01-05T20:23:31.816Z,19.45
2019-01-05T20:26:19.040Z,19.80
2019-01-05T20:29:06.201Z,20.32
2019-01-05T20:31:48.754Z,29.25
2019-01-05T20:34:37.078Z,21.00
2019-01-05T20:37:34.135Z,23.05
2019-01-05T20:40:23.970Z,25.37
2019-01-05T20:43:12.193Z,30.08
2019-01-05T20:45:57.866Z,24.52
2019-01-05T20:48:59.753Z,22.87
2019-01-05T20:51:45.680Z,19.27
2019-01-05T20:54:45.672Z,20.85
2019-01-05T20:57:31.223Z,22.13
2019-01-05T21:00:16.898Z,23.10
2019-01-05T21:03:02.731Z,23.32
2019-01-05T21:05:52.848Z,22.22
2019-01-05T21:08:52.031Z,18.42
2019-01-05T21:11:40.007Z,20.72
2019-01-05T21:14:27.139Z,21.10
2019-01-05T21:17:22.315Z,24.25
2019-01-05T21:20:18.399Z,25.10
2019-01-05T21:23:15.875Z,25.05
2019-01-05T21:26:00.144Z,25.00
2019-01-05T21:29:14.212Z,23.45
2019-01-05T21:32:02.013Z,24.00
2019-01-05T21:35:26.727Z,21.25
2019-01-05T21:38:15.779Z,22.05
2019-01-05T21:40:49.343Z,20.95
2019-01-05T21:43:43.605Z,21.45
2019-01-05T21:46:31.886Z,21.45
2019-01-05T21:49:21.987Z,19.00
2019-01-05T21:52:10.019Z,19.35
2019-01-05T21:54:58.506Z,21.62
2019-01-05T21:57:53.194Z,21.45
2019-01-05T22:00:49.351Z,25.97
2019-01-05T22:03:36.738Z,21.55
2019-01-05T22:06:24.181Z,23.25
2019-01-05T22:09:09.835Z,23.50
2019-01-05T22:11:55.794Z,24.60
2019-01-05T22:14:46.259Z,23.92
2019-01-05T22:17:31.942Z,24.60
2019-01-05T22:20:17.749Z,23.92
2019-01-05T22:23:07.601Z,22.75
2019-01-05T22:25:53.493Z,22.90
2019-01-05T22:28:46.649Z,22.65
2019-01-05T22:31:34.125Z,22.25
2019-01-05T22:34:34.362Z,20.08
2019-01-05T22:37:20.486Z,19.70
2019-01-05T22:40:07.762Z,21.68
2019-01-05T22:43:13.133Z,18.52
2019-01-05T22:46:03.273Z,17.67
2019-01-05T22:48:51.246Z,21.30
2019-01-05T22:51:44.586Z,18.48
2019-01-05T22:54:32.286Z,17.82
2019-01-05T22:57:22.293Z,20.65
2019-01-05T23:00:18.490Z,16.30
2019-01-05T23:03:04.814Z,17.37
2019-01-05T23:05:56.382Z,16.40
2019-01-05T23:08:49.321Z,19.20
2019-01-05T23:11:33.406Z,18.48
2019-01-05T23:14:30.864Z,21.00
2019-01-05T23:17:23.931Z,20.68
2019-01-05T23:20:15.393Z,22.87
2019-01-05T23:23:05.678Z,21.20
2019-01-05T23:25:56.151Z,24.70
2019-01-05T23:29:02.008Z,25.30
2019-01-05T23:32:01.916Z,25.70
2019-01-05T23:35:01.649Z,26.45
2019-01-05T23:37:58.642Z,27.73
2019-01-05T23:40:44.528Z,26.62
2019-01-05T23:43:29.507Z,28.15
2019-01-05T23:46:15.889Z,31.42
2019-01-05T23:49:15.208Z,31.77
2019-01-05T23:52:06.616Z,28.92
2019-01-05T23:54:57.823Z,30.05
2019-01-05T23:57:44.350Z,29.82
